Time,TemperatureF,DewpointF,PressureIn,WindDirection,WindDirectionDegrees,WindSpeedMPH,WindSpeedGustMPH,Humidity,HourlyPrecipIn,Conditions,Clouds,dailyrainin,SoftwareType,DateUTC
2013-02-24 00:01:00,29.0,24.0,29.78,North,9,1.0,5.0,82,0.00,,,0.00,,2013-02-24 05:01:00,
2013-02-24 00:11:00,29.0,24.0,29.78,North,9,1.0,5.0,82,0.00,,,0.00,,2013-02-24 05:11:00,
2013-02-24 00:22:00,29.0,25.0,29.78,North,9,3.0,3.0,83,0.00,,,0.00,,2013-02-24 05:22:00,
2013-02-24 00:32:00,29.0,25.0,29.79,North,9,3.0,6.0,83,0.00,,,0.00,,2013-02-24 05:32:00,
2013-02-24 00:42:00,29.0,25.0,29.79,North,9,3.0,6.0,83,0.00,,,0.00,,2013-02-24 05:42:00,
2013-02-24 00:52:00,29.0,25.0,29.80,North,9,1.0,4.0,83,0.00,,,0.00,,2013-02-24 05:52:00,
2013-02-24 01:01:00,29.0,25.0,29.80,North,9,2.0,4.0,84,0.00,,,0.00,,2013-02-24 06:01:00,
2013-02-24 01:11:00,29.0,25.0,29.80,North,9,2.0,4.0,84,0.00,,,0.00,,2013-02-24 06:11:00,
2013-02-24 01:21:00,29.0,25.0,29.80,North,9,4.0,4.0,84,0.00,,,0.00,,2013-02-24 06:21:00,
2013-02-24 01:32:00,29.0,25.0,29.80,North,9,4.0,6.0,84,0.00,,,0.00,,2013-02-24 06:32:00,
2013-02-24 01:42:00,29.0,25.0,29.80,North,9,4.0,6.0,84,0.00,,,0.00,,2013-02-24 06:42:00,
2013-02-24 01:52:00,29.0,25.0,29.80,North,9,0.0,4.0,84,0.00,,,0.00,,2013-02-24 06:52:00,
2013-02-24 02:01:00,29.0,25.0,29.80,North,9,1.0,5.0,84,0.00,,,0.00,,2013-02-24 07:01:00,
2013-02-24 02:12:00,29.0,25.0,29.80,North,9,1.0,5.0,84,0.00,,,0.00,,2013-02-24 07:12:00,
2013-02-24 02:22:00,29.0,25.0,29.81,North,9,3.0,8.0,83,0.00,,,0.00,,2013-02-24 07:22:00,
2013-02-24 02:32:00,29.0,25.0,29.82,North,9,5.0,6.0,83,0.00,,,0.00,,2013-02-24 07:32:00,
2013-02-24 02:42:00,29.0,25.0,29.82,North,9,5.0,6.0,83,0.00,,,0.00,,2013-02-24 07:42:00,
2013-02-24 02:52:00,28.0,24.0,29.82,North,9,2.0,6.0,84,0.00,,,0.00,,2013-02-24 07:52:00,
2013-02-24 03:01:00,28.0,24.0,29.83,North,9,3.0,7.0,84,0.00,,,0.00,,2013-02-24 08:01:00,
2013-02-24 03:11:00,28.0,24.0,29.83,North,9,3.0,7.0,84,0.00,,,0.00,,2013-02-24 08:11:00,
2013-02-24 03:22:00,28.0,24.0,29.83,North,9,2.0,6.0,84,0.00,,,0.00,,2013-02-24 08:22:00,
2013-02-24 03:32:00,28.0,24.0,29.83,North,9,3.0,7.0,84,0.00,,,0.00,,2013-02-24 08:32:00,
2013-02-24 03:42:00,28.0,24.0,29.83,North,9,3.0,7.0,84,0.00,,,0.00,,2013-02-24 08:42:00,
2013-02-24 03:54:00,28.0,24.0,29.83,North,9,6.0,9.0,83,0.00,,,0.00,,2013-02-24 08:54:00,
2013-02-24 04:01:00,28.0,23.0,29.83,North,9,3.0,8.0,82,0.00,,,0.00,,2013-02-24 09:01:00,
2013-02-24 04:11:00,28.0,23.0,29.83,North,9,3.0,8.0,82,0.00,,,0.00,,2013-02-24 09:11:00,
2013-02-24 04:21:00,28.0,23.0,29.83,North,9,5.0,10.0,81,0.00,,,0.00,,2013-02-24 09:21:00,
2013-02-24 04:32:00,28.0,23.0,29.83,North,9,3.0,8.0,81,0.00,,,0.00,,2013-02-24 09:32:00,
2013-02-24 04:42:00,28.0,23.0,29.83,North,9,3.0,8.0,81,0.00,,,0.00,,2013-02-24 09:42:00,
2013-02-24 04:52:00,27.0,22.0,29.83,North,9,4.0,8.0,80,0.00,,,0.00,,2013-02-24 09:52:00,
2013-02-24 05:01:00,27.0,21.0,29.83,North,9,5.0,9.0,79,0.00,,,0.00,,2013-02-24 10:01:00,
2013-02-24 05:11:00,27.0,21.0,29.83,North,9,5.0,9.0,79,0.00,,,0.00,,2013-02-24 10:11:00,
2013-02-24 05:21:00,27.0,22.0,29.83,North,9,7.0,10.0,80,0.00,,,0.00,,2013-02-24 10:21:00,
2013-02-24 05:32:00,27.0,22.0,29.83,North,9,4.0,10.0,80,0.00,,,0.00,,2013-02-24 10:32:00,
2013-02-24 05:42:00,27.0,22.0,29.83,North,9,4.0,10.0,80,0.00,,,0.00,,2013-02-24 10:42:00,
2013-02-24 05:52:00,27.0,22.0,29.84,North,9,3.0,9.0,80,0.00,,,0.00,,2013-02-24 10:52:00,
2013-02-24 06:01:00,27.0,22.0,29.84,North,9,3.0,7.0,81,0.00,,,0.00,,2013-02-24 11:01:00,
2013-02-24 06:11:00,27.0,22.0,29.84,North,9,3.0,7.0,81,0.00,,,0.00,,2013-02-24 11:11:00,
2013-02-24 06:22:00,27.0,22.0,29.85,North,9,5.0,9.0,81,0.00,,,0.00,,2013-02-24 11:22:00,
2013-02-24 06:32:00,27.0,22.0,29.86,North,9,4.0,12.0,81,0.00,,,0.00,,2013-02-24 11:32:00,
2013-02-24 06:42:00,27.0,22.0,29.86,North,9,4.0,12.0,81,0.00,,,0.00,,2013-02-24 11:42:00,
2013-02-24 06:53:00,27.0,22.0,29.86,North,9,9.0,13.0,81,0.00,,,0.00,,2013-02-24 11:53:00,
2013-02-24 07:02:00,26.0,20.0,29.87,North,9,5.0,12.0,78,0.00,,,0.00,,2013-02-24 12:02:00,
2013-02-24 07:11:00,26.0,20.0,29.87,North,9,5.0,12.0,78,0.00,,,0.00,,2013-02-24 12:11:00,
2013-02-24 07:22:00,26.0,20.0,29.87,North,9,10.0,13.0,77,0.00,,,0.00,,2013-02-24 12:22:00,
2013-02-24 07:32:00,26.0,20.0,29.88,North,9,6.0,8.0,78,0.00,,,0.00,,2013-02-24 12:32:00,
2013-02-24 07:46:00,26.0,20.0,29.88,North,9,6.0,8.0,78,0.00,,,0.00,,2013-02-24 12:46:00,
2013-02-24 07:57:00,26.0,20.0,29.88,North,9,7.0,12.0,79,0.00,,,0.00,,2013-02-24 12:57:00,
2013-02-24 08:14:00,26.0,20.0,29.88,North,9,5.0,10.0,79,0.00,,,0.00,,2013-02-24 13:14:00,
2013-02-24 08:27:00,26.0,20.0,29.88,North,9,1.0,5.0,79,0.00,,,0.00,,2013-02-24 13:27:00,
2013-02-24 08:34:00,26.0,20.0,29.89,North,9,4.0,8.0,79,0.00,,,0.00,,2013-02-24 13:34:00,
2013-02-24 08:45:00,26.0,20.0,29.89,North,9,4.0,8.0,79,0.00,,,0.00,,2013-02-24 13:45:00,
2013-02-24 08:55:00,26.0,21.0,29.89,North,9,8.0,10.0,81,0.00,,,0.00,,2013-02-24 13:55:00,
2013-02-24 09:04:00,26.0,21.0,29.90,North,9,6.0,12.0,80,0.00,,,0.00,,2013-02-24 14:04:00,
2013-02-24 09:14:00,26.0,21.0,29.90,North,9,6.0,12.0,80,0.00,,,0.00,,2013-02-24 14:14:00,
2013-02-24 09:25:00,26.0,20.0,29.90,North,9,7.0,10.0,78,0.00,,,0.00,,2013-02-24 14:25:00,
2013-02-24 09:34:00,27.0,21.0,29.91,North,9,4.0,9.0,79,0.00,,,0.00,,2013-02-24 14:34:00,
2013-02-24 09:44:00,27.0,21.0,29.91,North,9,4.0,9.0,79,0.00,,,0.00,,2013-02-24 14:44:00,
2013-02-24 09:55:00,27.0,21.0,29.91,North,9,7.0,10.0,78,0.00,,,0.00,,2013-02-24 14:55:00,
2013-02-24 10:03:00,27.0,21.0,29.91,North,9,3.0,7.0,79,0.00,,,0.00,,2013-02-24 15:03:00,
2013-02-24 10:14:00,27.0,21.0,29.91,North,9,3.0,7.0,79,0.00,,,0.00,,2013-02-24 15:14:00,
2013-02-24 10:24:00,28.0,22.0,29.91,North,9,5.0,8.0,79,0.00,,,0.00,,2013-02-24 15:24:00,
2013-02-24 10:32:00,28.0,23.0,29.91,North,9,4.0,9.0,80,0.00,,,0.00,,2013-02-24 15:32:00,
2013-02-24 10:42:00,28.0,23.0,29.91,North,9,4.0,9.0,80,0.00,,,0.00,,2013-02-24 15:42:00,
2013-02-24 10:52:00,28.0,23.0,29.91,North,9,8.0,10.0,80,0.00,,,0.00,,2013-02-24 15:52:00,
2013-02-24 11:02:00,28.0,23.0,29.92,North,9,8.0,10.0,81,0.00,,,0.00,,2013-02-24 16:02:00,
2013-02-24 11:12:00,28.0,23.0,29.92,North,9,8.0,10.0,81,0.00,,,0.00,,2013-02-24 16:12:00,
2013-02-24 11:21:00,28.0,22.0,29.92,North,9,5.0,10.0,79,0.00,,,0.00,,2013-02-24 16:21:00,
2013-02-24 11:32:00,28.0,22.0,29.93,North,9,6.0,13.0,79,0.00,,,0.00,,2013-02-24 16:32:00,
2013-02-24 11:42:00,28.0,22.0,29.93,North,9,6.0,13.0,79,0.00,,,0.00,,2013-02-24 16:42:00,
2013-02-24 11:52:00,29.0,24.0,29.93,North,9,5.0,13.0,80,0.00,,,0.00,,2013-02-24 16:52:00,
2013-02-24 12:01:00,29.0,23.0,29.93,North,9,10.0,13.0,78,0.00,,,0.00,,2013-02-24 17:01:00,
2013-02-24 12:11:00,29.0,23.0,29.93,North,9,10.0,13.0,78,0.00,,,0.00,,2013-02-24 17:11:00,
2013-02-24 12:22:00,29.0,23.0,29.93,North,9,10.0,13.0,78,0.00,,,0.00,,2013-02-24 17:22:00,
2013-02-24 12:32:00,30.0,24.0,29.93,North,9,5.0,10.0,77,0.00,,,0.00,,2013-02-24 17:32:00,
2013-02-24 12:42:00,30.0,24.0,29.93,North,9,5.0,10.0,77,0.00,,,0.00,,2013-02-24 17:42:00,
2013-02-24 12:53:00,30.0,24.0,29.93,North,9,6.0,14.0,77,0.00,,,0.00,,2013-02-24 17:53:00,
2013-02-24 13:02:00,30.0,24.0,29.93,North,9,9.0,12.0,78,0.00,,,0.00,,2013-02-24 18:02:00,
2013-02-24 13:11:00,30.0,24.0,29.93,North,9,9.0,12.0,78,0.00,,,0.00,,2013-02-24 18:11:00,
2013-02-24 13:22:00,31.0,25.0,29.93,North,9,7.0,11.0,77,0.00,,,0.00,,2013-02-24 18:22:00,
2013-02-24 13:32:00,31.0,25.0,29.93,North,9,8.0,11.0,77,0.00,,,0.00,,2013-02-24 18:32:00,
2013-02-24 13:42:00,31.0,25.0,29.93,North,9,8.0,11.0,77,0.00,,,0.00,,2013-02-24 18:42:00,
2013-02-24 13:52:00,31.0,25.0,29.93,North,9,3.0,12.0,77,0.00,,,0.00,,2013-02-24 18:52:00,
2013-02-24 14:01:00,32.0,25.0,29.93,North,9,11.0,12.0,75,0.00,,,0.00,,2013-02-24 19:01:00,
2013-02-24 14:12:00,32.0,25.0,29.93,North,9,11.0,12.0,75,0.00,,,0.00,,2013-02-24 19:12:00,
2013-02-24 14:22:00,32.0,25.0,29.93,North,9,8.0,11.0,74,0.00,,,0.00,,2013-02-24 19:22:00,
2013-02-24 14:32:00,32.0,25.0,29.94,North,9,7.0,11.0,75,0.00,,,0.00,,2013-02-24 19:32:00,
2013-02-24 14:42:00,32.0,25.0,29.94,North,9,7.0,11.0,75,0.00,,,0.00,,2013-02-24 19:42:00,
2013-02-24 14:52:00,32.0,25.0,29.94,North,9,9.0,10.0,75,0.00,,,0.00,,2013-02-24 19:52:00,
2013-02-24 15:02:00,32.0,25.0,29.94,North,9,5.0,15.0,76,0.00,,,0.00,,2013-02-24 20:02:00,
2013-02-24 15:11:00,32.0,25.0,29.94,North,9,5.0,15.0,76,0.00,,,0.00,,2013-02-24 20:11:00,
2013-02-24 15:22:00,33.0,26.0,29.94,North,9,11.0,12.0,75,0.00,,,0.00,,2013-02-24 20:22:00,
2013-02-24 15:32:00,33.0,26.0,29.95,North,9,8.0,12.0,76,0.00,,,0.00,,2013-02-24 20:32:00,
2013-02-24 15:42:00,33.0,26.0,29.95,North,9,8.0,12.0,76,0.00,,,0.00,,2013-02-24 20:42:00,
2013-02-24 15:52:00,34.0,28.0,29.95,North,9,6.0,12.0,78,0.00,,,0.00,,2013-02-24 20:52:00,
2013-02-24 16:02:00,33.0,26.0,29.95,North,9,7.0,16.0,75,0.00,,,0.00,,2013-02-24 21:02:00,
2013-02-24 16:11:00,33.0,26.0,29.95,North,9,7.0,16.0,75,0.00,,,0.00,,2013-02-24 21:11:00,
2013-02-24 16:21:00,33.0,26.0,29.95,North,9,3.0,12.0,76,0.00,,,0.00,,2013-02-24 21:21:00,
2013-02-24 16:32:00,33.0,26.0,29.96,North,9,3.0,7.0,75,0.00,,,0.00,,2013-02-24 21:32:00,
2013-02-24 16:42:00,33.0,26.0,29.96,North,9,3.0,7.0,75,0.00,,,0.00,,2013-02-24 21:42:00,
2013-02-24 16:52:00,33.0,26.0,29.96,North,9,7.0,7.0,75,0.00,,,0.00,,2013-02-24 21:52:00,
2013-02-24 17:01:00,33.0,26.0,29.97,North,9,4.0,8.0,75,0.00,,,0.00,,2013-02-24 22:01:00,
2013-02-24 17:11:00,33.0,26.0,29.97,North,9,4.0,8.0,75,0.00,,,0.00,,2013-02-24 22:11:00,
2013-02-24 17:22:00,33.0,26.0,29.97,North,9,4.0,8.0,75,0.00,,,0.00,,2013-02-24 22:22:00,
2013-02-24 17:32:00,33.0,26.0,29.98,North,9,3.0,9.0,75,0.00,,,0.00,,2013-02-24 22:32:00,
2013-02-24 17:42:00,33.0,26.0,29.98,North,9,3.0,9.0,75,0.00,,,0.00,,2013-02-24 22:42:00,
2013-02-24 17:52:00,33.0,26.0,29.98,North,9,5.0,6.0,75,0.00,,,0.00,,2013-02-24 22:52:00,
2013-02-24 18:02:00,33.0,26.0,29.98,North,9,2.0,7.0,75,0.00,,,0.00,,2013-02-24 23:02:00,
2013-02-24 18:11:00,33.0,26.0,29.98,North,9,2.0,7.0,75,0.00,,,0.00,,2013-02-24 23:11:00,
2013-02-24 18:21:00,33.0,26.0,29.99,North,9,7.0,10.0,76,0.00,,,0.00,,2013-02-24 23:21:00,
2013-02-24 18:32:00,33.0,27.0,30.00,North,9,4.0,8.0,77,0.00,,,0.00,,2013-02-24 23:32:00,
2013-02-24 18:42:00,33.0,27.0,30.00,North,9,4.0,8.0,77,0.00,,,0.00,,2013-02-24 23:42:00,
2013-02-24 18:52:00,33.0,27.0,30.00,North,9,2.0,5.0,78,0.00,,,0.00,,2013-02-24 23:52:00,
2013-02-24 19:01:00,32.0,27.0,30.01,North,9,3.0,4.0,80,0.00,,,0.00,,2013-02-25 00:01:00,
2013-02-24 19:11:00,32.0,27.0,30.01,North,9,3.0,4.0,80,0.00,,,0.00,,2013-02-25 00:11:00,
2013-02-24 19:21:00,32.0,27.0,30.01,North,9,1.0,3.0,81,0.00,,,0.00,,2013-02-25 00:21:00,
2013-02-24 19:32:00,31.0,26.0,30.01,North,9,1.0,3.0,80,0.00,,,0.00,,2013-02-25 00:32:00,
2013-02-24 19:42:00,31.0,26.0,30.01,North,9,1.0,3.0,80,0.00,,,0.00,,2013-02-25 00:42:00,
2013-02-24 19:52:00,31.0,26.0,30.02,North,9,0.0,2.0,80,0.00,,,0.00,,2013-02-25 00:52:00,
2013-02-24 20:01:00,31.0,26.0,30.02,North,9,0.0,2.0,80,0.00,,,0.00,,2013-02-25 01:01:00,
2013-02-24 20:11:00,31.0,26.0,30.02,North,9,0.0,2.0,80,0.00,,,0.00,,2013-02-25 01:11:00,
2013-02-24 20:21:00,31.0,26.0,30.03,SSW,202,0.0,2.0,80,0.00,,,0.00,,2013-02-25 01:21:00,
2013-02-24 20:32:00,30.0,25.0,30.03,SSW,200,0.0,0.0,83,0.00,,,0.00,,2013-02-25 01:32:00,
2013-02-24 20:42:00,30.0,25.0,30.03,SSW,200,0.0,0.0,83,0.00,,,0.00,,2013-02-25 01:42:00,
2013-02-24 20:52:00,30.0,26.0,30.03,SSW,192,0.0,0.0,85,0.00,,,0.00,,2013-02-25 01:52:00,
2013-02-24 21:01:00,29.0,25.0,30.03,North,9,0.0,0.0,86,0.00,,,0.00,,2013-02-25 02:01:00,
2013-02-24 21:11:00,29.0,25.0,30.03,North,9,0.0,0.0,86,0.00,,,0.00,,2013-02-25 02:11:00,
2013-02-24 21:21:00,30.0,26.0,30.03,North,9,0.0,0.0,86,0.00,,,0.00,,2013-02-25 02:21:00,
2013-02-24 21:32:00,30.0,26.0,30.03,North,9,2.0,3.0,85,0.00,,,0.00,,2013-02-25 02:32:00,
2013-02-24 21:42:00,30.0,26.0,30.03,North,9,2.0,3.0,85,0.00,,,0.00,,2013-02-25 02:42:00,
2013-02-24 21:52:00,31.0,27.0,30.03,North,9,0.0,2.0,85,0.00,,,0.00,,2013-02-25 02:52:00,
2013-02-24 22:02:00,31.0,27.0,30.03,North,9,0.0,0.0,85,0.00,,,0.00,,2013-02-25 03:02:00,
2013-02-24 22:11:00,31.0,27.0,30.03,North,9,0.0,0.0,85,0.00,,,0.00,,2013-02-25 03:11:00,
2013-02-24 22:21:00,31.0,27.0,30.03,North,10,1.0,2.0,85,0.00,,,0.00,,2013-02-25 03:21:00,
2013-02-24 22:32:00,31.0,27.0,30.04,North,10,3.0,4.0,85,0.00,,,0.00,,2013-02-25 03:32:00,
2013-02-24 22:42:00,31.0,27.0,30.04,North,10,3.0,4.0,85,0.00,,,0.00,,2013-02-25 03:42:00,
2013-02-24 22:52:00,31.0,27.0,30.04,North,9,0.0,1.0,84,0.00,,,0.00,,2013-02-25 03:52:00,
2013-02-24 23:02:00,31.0,27.0,30.04,North,9,0.0,0.0,85,0.00,,,0.00,,2013-02-25 04:02:00,
2013-02-24 23:11:00,31.0,27.0,30.04,North,9,0.0,0.0,85,0.00,,,0.00,,2013-02-25 04:11:00,
2013-02-24 23:21:00,31.0,27.0,30.04,North,9,2.0,4.0,85,0.00,,,0.00,,2013-02-25 04:21:00,
2013-02-24 23:32:00,31.0,27.0,30.04,North,10,0.0,1.0,85,0.00,,,0.00,,2013-02-25 04:32:00,
2013-02-24 23:42:00,31.0,27.0,30.04,North,10,0.0,1.0,85,0.00,,,0.00,,2013-02-25 04:42:00,
2013-02-24 23:52:00,31.0,27.0,30.04,North,10,0.0,2.0,86,0.00,,,0.00,,2013-02-25 04:52:00,